sensor_id;sensor_type;location;lat;lon;timestamp;P1;durP1;ratioP1;P2;durP2;ratioP2
35877;SDS011;21982;49.804;24.072;2024-01-10T00:01:31;41.00;;;17.93;;
35877;SDS011;21982;49.804;24.072;2024-01-10T00:03:57;39.07;;;18.17;;
35877;SDS011;21982;49.804;24.072;2024-01-10T00:06:23;29.80;;;15.53;;
35877;SDS011;21982;49.804;24.072;2024-01-10T00:08:49;31.27;;;15.03;;
35877;SDS011;21982;49.804;24.072;2024-01-10T00:11:14;36.17;;;17.67;;
35877;SDS011;21982;49.804;24.072;2024-01-10T00:13:40;31.20;;;15.63;;
35877;SDS011;21982;49.804;24.072;2024-01-10T00:16:05;32.67;;;16.27;;
35877;SDS011;21982;49.804;24.072;2024-01-10T00:18:31;34.70;;;17.40;;
35877;SDS011;21982;49.804;24.072;2024-01-10T00:20:57;36.30;;;17.33;;
35877;SDS011;21982;49.804;24.072;2024-01-10T00:23:23;41.23;;;17.63;;
35877;SDS011;21982;49.804;24.072;2024-01-10T00:25:48;35.03;;;16.47;;
35877;SDS011;21982;49.804;24.072;2024-01-10T00:28:14;40.87;;;18.57;;
35877;SDS011;21982;49.804;24.072;2024-01-10T00:30:43;43.80;;;18.43;;
35877;SDS011;21982;49.804;24.072;2024-01-10T00:33:09;46.80;;;20.30;;
35877;SDS011;21982;49.804;24.072;2024-01-10T00:35:34;35.90;;;17.07;;
35877;SDS011;21982;49.804;24.072;2024-01-10T00:38:00;42.80;;;17.50;;
35877;SDS011;21982;49.804;24.072;2024-01-10T00:40:25;35.73;;;16.10;;
35877;SDS011;21982;49.804;24.072;2024-01-10T00:42:51;44.73;;;19.50;;
35877;SDS011;21982;49.804;24.072;2024-01-10T00:45:17;35.30;;;18.33;;
35877;SDS011;21982;49.804;24.072;2024-01-10T00:47:42;46.97;;;17.33;;
35877;SDS011;21982;49.804;24.072;2024-01-10T00:50:08;45.73;;;18.00;;
35877;SDS011;21982;49.804;24.072;2024-01-10T00:52:33;36.10;;;17.17;;
35877;SDS011;21982;49.804;24.072;2024-01-10T00:54:59;41.70;;;20.10;;
35877;SDS011;21982;49.804;24.072;2024-01-10T00:57:24;46.30;;;22.97;;
35877;SDS011;21982;49.804;24.072;2024-01-10T00:59:50;54.77;;;24.43;;
35877;SDS011;21982;49.804;24.072;2024-01-10T01:02:15;46.63;;;25.47;;
35877;SDS011;21982;49.804;24.072;2024-01-10T01:04:41;85.87;;;37.20;;
35877;SDS011;21982;49.804;24.072;2024-01-10T01:07:06;77.83;;;31.73;;
35877;SDS011;21982;49.804;24.072;2024-01-10T01:11:57;53.97;;;26.88;;
35877;SDS011;21982;49.804;24.072;2024-01-10T01:14:23;53.97;;;25.73;;
35877;SDS011;21982;49.804;24.072;2024-01-10T01:16:48;47.67;;;23.77;;
35877;SDS011;21982;49.804;24.072;2024-01-10T01:19:13;63.07;;;27.13;;
35877;SDS011;21982;49.804;24.072;2024-01-10T01:21:39;50.10;;;24.10;;
35877;SDS011;21982;49.804;24.072;2024-01-10T01:24:04;52.90;;;22.80;;
35877;SDS011;21982;49.804;24.072;2024-01-10T01:26:30;48.80;;;23.40;;
35877;SDS011;21982;49.804;24.072;2024-01-10T01:28:55;52.20;;;23.47;;
35877;SDS011;21982;49.804;24.072;2024-01-10T01:31:21;45.60;;;21.87;;
35877;SDS011;21982;49.804;24.072;2024-01-10T01:33:46;52.60;;;22.23;;
35877;SDS011;21982;49.804;24.072;2024-01-10T01:36:12;44.83;;;21.07;;
35877;SDS011;21982;49.804;24.072;2024-01-10T01:38:37;46.37;;;19.70;;
35877;SDS011;21982;49.804;24.072;2024-01-10T01:41:03;50.20;;;24.10;;
35877;SDS011;21982;49.804;24.072;2024-01-10T01:43:28;47.03;;;22.90;;
35877;SDS011;21982;49.804;24.072;2024-01-10T01:45:54;54.80;;;24.20;;
35877;SDS011;21982;49.804;24.072;2024-01-10T01:48:21;57.10;;;25.27;;
35877;SDS011;21982;49.804;24.072;2024-01-10T01:50:48;61.30;;;25.57;;
35877;SDS011;21982;49.804;24.072;2024-01-10T01:53:17;57.07;;;27.03;;
35877;SDS011;21982;49.804;24.072;2024-01-10T01:55:44;56.97;;;26.63;;
35877;SDS011;21982;49.804;24.072;2024-01-10T01:58:10;64.13;;;29.07;;
35877;SDS011;21982;49.804;24.072;2024-01-10T02:00:37;86.57;;;39.73;;
35877;SDS011;21982;49.804;24.072;2024-01-10T02:03:10;88.70;;;42.37;;
35877;SDS011;21982;49.804;24.072;2024-01-10T02:05:36;75.17;;;36.83;;
35877;SDS011;21982;49.804;24.072;2024-01-10T02:08:02;71.47;;;33.63;;
35877;SDS011;21982;49.804;24.072;2024-01-10T02:10:28;75.13;;;33.47;;
35877;SDS011;21982;49.804;24.072;2024-01-10T02:12:53;66.60;;;32.33;;
35877;SDS011;21982;49.804;24.072;2024-01-10T02:15:19;72.00;;;31.53;;
35877;SDS011;21982;49.804;24.072;2024-01-10T02:17:45;52.63;;;25.93;;
35877;SDS011;21982;49.804;24.072;2024-01-10T02:20:10;59.83;;;26.40;;
35877;SDS011;21982;49.804;24.072;2024-01-10T02:22:37;57.17;;;26.73;;
35877;SDS011;21982;49.804;24.072;2024-01-10T02:25:04;51.83;;;26.63;;
35877;SDS011;21982;49.804;24.072;2024-01-10T02:27:34;55.37;;;25.93;;
35877;SDS011;21982;49.804;24.072;2024-01-10T02:30:01;53.37;;;25.97;;
35877;SDS011;21982;49.804;24.072;2024-01-10T02:32:28;57.17;;;27.07;;
35877;SDS011;21982;49.804;24.072;2024-01-10T02:34:53;59.00;;;28.33;;
35877;SDS011;21982;49.804;24.072;2024-01-10T02:37:20;47.63;;;24.50;;
35877;SDS011;21982;49.804;24.072;2024-01-10T02:39:45;52.70;;;24.50;;
35877;SDS011;21982;49.804;24.072;2024-01-10T02:42:11;48.50;;;22.33;;
35877;SDS011;21982;49.804;24.072;2024-01-10T02:44:36;45.23;;;23.93;;
35877;SDS011;21982;49.804;24.072;2024-01-10T02:49:37;49.73;;;23.83;;
35877;SDS011;21982;49.804;24.072;2024-01-10T02:52:03;61.77;;;27.90;;
35877;SDS011;21982;49.804;24.072;2024-01-10T02:54:29;53.00;;;25.43;;
35877;SDS011;21982;49.804;24.072;2024-01-10T02:56:55;46.87;;;26.13;;
35877;SDS011;21982;49.804;24.072;2024-01-10T02:59:20;61.33;;;27.93;;
35877;SDS011;21982;49.804;24.072;2024-01-10T03:01:45;61.70;;;27.70;;
35877;SDS011;21982;49.804;24.072;2024-01-10T03:04:11;62.03;;;28.53;;
35877;SDS011;21982;49.804;24.072;2024-01-10T03:06:36;81.67;;;36.93;;
35877;SDS011;21982;49.804;24.072;2024-01-10T03:09:02;93.80;;;35.67;;
35877;SDS011;21982;49.804;24.072;2024-01-10T03:11:28;78.97;;;38.37;;
35877;SDS011;21982;49.804;24.072;2024-01-10T03:14:03;86.17;;;38.87;;
35877;SDS011;21982;49.804;24.072;2024-01-10T03:16:32;87.33;;;40.57;;
35877;SDS011;21982;49.804;24.072;2024-01-10T03:18:58;79.77;;;35.93;;
35877;SDS011;21982;49.804;24.072;2024-01-10T03:21:24;83.73;;;36.27;;
35877;SDS011;21982;49.804;24.072;2024-01-10T03:26:26;80.83;;;31.70;;
35877;SDS011;21982;49.804;24.072;2024-01-10T03:28:55;69.13;;;32.67;;
35877;SDS011;21982;49.804;24.072;2024-01-10T03:31:21;85.90;;;36.63;;
35877;SDS011;21982;49.804;24.072;2024-01-10T03:33:47;85.70;;;36.90;;
35877;SDS011;21982;49.804;24.072;2024-01-10T03:36:14;74.67;;;38.50;;
35877;SDS011;21982;49.804;24.072;2024-01-10T03:38:40;87.13;;;38.97;;
35877;SDS011;21982;49.804;24.072;2024-01-10T03:41:06;166.33;;;75.13;;
35877;SDS011;21982;49.804;24.072;2024-01-10T03:43:31;112.23;;;58.83;;
35877;SDS011;21982;49.804;24.072;2024-01-10T03:45:59;88.97;;;46.77;;
35877;SDS011;21982;49.804;24.072;2024-01-10T03:48:24;81.93;;;38.43;;
35877;SDS011;21982;49.804;24.072;2024-01-10T03:50:51;83.77;;;39.83;;
35877;SDS011;21982;49.804;24.072;2024-01-10T03:53:16;72.27;;;37.43;;
35877;SDS011;21982;49.804;24.072;2024-01-10T03:55:42;122.50;;;44.97;;
35877;SDS011;21982;49.804;24.072;2024-01-10T03:58:08;104.40;;;43.90;;
35877;SDS011;21982;49.804;24.072;2024-01-10T04:00:33;87.20;;;38.07;;
35877;SDS011;21982;49.804;24.072;2024-01-10T04:02:59;87.43;;;38.97;;
35877;SDS011;21982;49.804;24.072;2024-01-10T04:11:19;63.80;;;29.17;;
35877;SDS011;21982;49.804;24.072;2024-01-10T04:13:44;63.17;;;30.67;;
35877;SDS011;21982;49.804;24.072;2024-01-10T04:16:10;70.57;;;32.37;;
35877;SDS011;21982;49.804;24.072;2024-01-10T04:18:35;68.83;;;32.17;;
35877;SDS011;21982;49.804;24.072;2024-01-10T04:21:03;58.10;;;29.40;;
35877;SDS011;21982;49.804;24.072;2024-01-10T04:23:29;58.77;;;30.30;;
35877;SDS011;21982;49.804;24.072;2024-01-10T04:25:58;68.80;;;28.20;;
35877;SDS011;21982;49.804;24.072;2024-01-10T04:28:24;60.57;;;28.40;;
35877;SDS011;21982;49.804;24.072;2024-01-10T04:34:12;68.43;;;32.87;;
35877;SDS011;21982;49.804;24.072;2024-01-10T04:36:37;60.70;;;28.90;;
35877;SDS011;21982;49.804;24.072;2024-01-10T04:39:03;52.53;;;26.17;;
35877;SDS011;21982;49.804;24.072;2024-01-10T04:41:28;53.17;;;26.87;;
35877;SDS011;21982;49.804;24.072;2024-01-10T04:43:54;52.40;;;26.77;;
35877;SDS011;21982;49.804;24.072;2024-01-10T04:46:19;56.87;;;27.07;;
35877;SDS011;21982;49.804;24.072;2024-01-10T04:48:44;67.10;;;30.77;;
35877;SDS011;21982;49.804;24.072;2024-01-10T04:51:10;64.20;;;30.63;;
35877;SDS011;21982;49.804;24.072;2024-01-10T04:53:35;58.40;;;27.10;;
35877;SDS011;21982;49.804;24.072;2024-01-10T05:02:00;51.70;;;27.53;;
35877;SDS011;21982;49.804;24.072;2024-01-10T05:14:51;55.35;;;28.27;;
35877;SDS011;21982;49.804;24.072;2024-01-10T05:17:19;54.87;;;27.10;;
35877;SDS011;21982;49.804;24.072;2024-01-10T05:19:46;57.30;;;28.93;;
35877;SDS011;21982;49.804;24.072;2024-01-10T05:22:12;73.33;;;34.60;;
35877;SDS011;21982;49.804;24.072;2024-01-10T05:24:37;58.30;;;29.47;;
35877;SDS011;21982;49.804;24.072;2024-01-10T05:27:03;71.90;;;35.27;;
35877;SDS011;21982;49.804;24.072;2024-01-10T05:29:28;57.93;;;29.03;;
35877;SDS011;21982;49.804;24.072;2024-01-10T05:31:54;52.77;;;28.03;;
35877;SDS011;21982;49.804;24.072;2024-01-10T05:34:19;55.27;;;28.07;;
35877;SDS011;21982;49.804;24.072;2024-01-10T05:36:47;72.23;;;31.67;;
35877;SDS011;21982;49.804;24.072;2024-01-10T05:39:13;65.67;;;31.43;;
35877;SDS011;21982;49.804;24.072;2024-01-10T05:41:41;72.23;;;32.97;;
35877;SDS011;21982;49.804;24.072;2024-01-10T05:44:08;80.70;;;38.53;;
35877;SDS011;21982;49.804;24.072;2024-01-10T05:46:34;67.13;;;34.20;;
35877;SDS011;21982;49.804;24.072;2024-01-10T05:48:59;66.73;;;30.87;;
35877;SDS011;21982;49.804;24.072;2024-01-10T05:51:25;60.80;;;29.20;;
35877;SDS011;21982;49.804;24.072;2024-01-10T05:53:50;59.60;;;30.87;;
35877;SDS011;21982;49.804;24.072;2024-01-10T05:56:16;66.83;;;30.87;;
35877;SDS011;21982;49.804;24.072;2024-01-10T05:58:41;66.67;;;32.07;;
35877;SDS011;21982;49.804;24.072;2024-01-10T06:01:07;64.97;;;29.77;;
35877;SDS011;21982;49.804;24.072;2024-01-10T06:03:35;63.77;;;31.07;;
35877;SDS011;21982;49.804;24.072;2024-01-10T06:06:00;59.57;;;30.37;;
35877;SDS011;21982;49.804;24.072;2024-01-10T06:08:29;58.13;;;28.47;;
35877;SDS011;21982;49.804;24.072;2024-01-10T06:10:54;70.63;;;29.37;;
35877;SDS011;21982;49.804;24.072;2024-01-10T06:13:19;58.63;;;24.93;;
35877;SDS011;21982;49.804;24.072;2024-01-10T06:15:48;55.40;;;27.40;;
35877;SDS011;21982;49.804;24.072;2024-01-10T06:18:14;52.17;;;27.23;;
35877;SDS011;21982;49.804;24.072;2024-01-10T06:20:39;67.07;;;29.83;;
35877;SDS011;21982;49.804;24.072;2024-01-10T06:23:05;64.10;;;30.00;;
35877;SDS011;21982;49.804;24.072;2024-01-10T06:25:33;69.03;;;32.17;;
35877;SDS011;21982;49.804;24.072;2024-01-10T06:27:58;66.43;;;30.53;;
35877;SDS011;21982;49.804;24.072;2024-01-10T06:30:24;64.00;;;28.63;;
35877;SDS011;21982;49.804;24.072;2024-01-10T06:32:49;68.63;;;33.47;;
35877;SDS011;21982;49.804;24.072;2024-01-10T06:35:15;85.97;;;35.77;;
35877;SDS011;21982;49.804;24.072;2024-01-10T06:37:40;74.53;;;33.53;;
35877;SDS011;21982;49.804;24.072;2024-01-10T06:40:07;87.67;;;39.70;;
35877;SDS011;21982;49.804;24.072;2024-01-10T06:42:36;91.97;;;39.57;;
35877;SDS011;21982;49.804;24.072;2024-01-10T06:45:02;73.90;;;34.40;;
35877;SDS011;21982;49.804;24.072;2024-01-10T06:47:29;78.30;;;35.20;;
35877;SDS011;21982;49.804;24.072;2024-01-10T06:49:54;86.13;;;40.37;;
35877;SDS011;21982;49.804;24.072;2024-01-10T06:52:19;89.47;;;41.77;;
35877;SDS011;21982;49.804;24.072;2024-01-10T06:54:45;71.73;;;34.33;;
35877;SDS011;21982;49.804;24.072;2024-01-10T06:57:10;76.47;;;35.50;;
35877;SDS011;21982;49.804;24.072;2024-01-10T06:59:36;69.33;;;33.57;;
35877;SDS011;21982;49.804;24.072;2024-01-10T07:02:04;64.73;;;33.73;;
35877;SDS011;21982;49.804;24.072;2024-01-10T07:04:31;67.30;;;34.07;;
35877;SDS011;21982;49.804;24.072;2024-01-10T07:06:57;84.07;;;38.90;;
35877;SDS011;21982;49.804;24.072;2024-01-10T07:09:22;88.33;;;37.70;;
35877;SDS011;21982;49.804;24.072;2024-01-10T07:11:50;81.17;;;37.07;;
35877;SDS011;21982;49.804;24.072;2024-01-10T07:14:15;95.87;;;42.00;;
35877;SDS011;21982;49.804;24.072;2024-01-10T07:16:41;115.23;;;45.77;;
35877;SDS011;21982;49.804;24.072;2024-01-10T07:19:11;100.67;;;43.97;;
35877;SDS011;21982;49.804;24.072;2024-01-10T07:21:38;80.47;;;40.90;;
35877;SDS011;21982;49.804;24.072;2024-01-10T07:24:07;86.90;;;41.17;;
35877;SDS011;21982;49.804;24.072;2024-01-10T07:26:37;88.23;;;40.27;;
35877;SDS011;21982;49.804;24.072;2024-01-10T07:29:02;87.63;;;38.03;;
35877;SDS011;21982;49.804;24.072;2024-01-10T07:31:28;79.07;;;37.13;;
35877;SDS011;21982;49.804;24.072;2024-01-10T07:33:55;76.73;;;34.43;;
35877;SDS011;21982;49.804;24.072;2024-01-10T07:36:22;62.87;;;33.00;;
35877;SDS011;21982;49.804;24.072;2024-01-10T07:38:48;70.83;;;33.30;;
35877;SDS011;21982;49.804;24.072;2024-01-10T07:41:14;59.03;;;32.33;;
35877;SDS011;21982;49.804;24.072;2024-01-10T07:43:39;65.70;;;34.30;;
35877;SDS011;21982;49.804;24.072;2024-01-10T07:46:08;73.27;;;34.40;;
35877;SDS011;21982;49.804;24.072;2024-01-10T07:48:33;67.63;;;32.40;;
35877;SDS011;21982;49.804;24.072;2024-01-10T07:51:01;67.73;;;31.90;;
35877;SDS011;21982;49.804;24.072;2024-01-10T07:53:26;60.87;;;32.10;;
35877;SDS011;21982;49.804;24.072;2024-01-10T07:55:52;69.10;;;32.33;;
35877;SDS011;21982;49.804;24.072;2024-01-10T07:58:20;64.73;;;32.93;;
35877;SDS011;21982;49.804;24.072;2024-01-10T08:00:46;68.53;;;32.77;;
35877;SDS011;21982;49.804;24.072;2024-01-10T08:03:11;57.87;;;32.77;;
35877;SDS011;21982;49.804;24.072;2024-01-10T08:05:37;65.37;;;32.00;;
35877;SDS011;21982;49.804;24.072;2024-01-10T08:08:02;75.97;;;35.03;;
35877;SDS011;21982;49.804;24.072;2024-01-10T08:10:28;59.03;;;29.67;;
35877;SDS011;21982;49.804;24.072;2024-01-10T08:12:54;67.30;;;33.27;;
35877;SDS011;21982;49.804;24.072;2024-01-10T08:15:22;63.50;;;30.83;;
35877;SDS011;21982;49.804;24.072;2024-01-10T08:17:47;63.57;;;31.53;;
35877;SDS011;21982;49.804;24.072;2024-01-10T08:20:15;54.67;;;30.20;;
35877;SDS011;21982;49.804;24.072;2024-01-10T08:22:46;60.50;;;33.40;;
35877;SDS011;21982;49.804;24.072;2024-01-10T08:25:12;74.63;;;36.03;;
35877;SDS011;21982;49.804;24.072;2024-01-10T08:27:38;66.47;;;33.33;;
35877;SDS011;21982;49.804;24.072;2024-01-10T08:30:03;65.77;;;33.70;;
35877;SDS011;21982;49.804;24.072;2024-01-10T08:32:30;72.63;;;34.20;;
35877;SDS011;21982;49.804;24.072;2024-01-10T08:35:00;78.53;;;38.33;;
35877;SDS011;21982;49.804;24.072;2024-01-10T08:37:25;64.73;;;35.13;;
35877;SDS011;21982;49.804;24.072;2024-01-10T08:39:54;63.50;;;31.83;;
35877;SDS011;21982;49.804;24.072;2024-01-10T08:42:19;51.23;;;26.47;;
35877;SDS011;21982;49.804;24.072;2024-01-10T08:44:45;58.97;;;29.77;;
35877;SDS011;21982;49.804;24.072;2024-01-10T08:47:10;61.07;;;30.97;;
35877;SDS011;21982;49.804;24.072;2024-01-10T08:49:35;64.07;;;31.90;;
35877;SDS011;21982;49.804;24.072;2024-01-10T08:52:06;56.37;;;26.63;;
35877;SDS011;21982;49.804;24.072;2024-01-10T08:54:36;51.93;;;23.60;;
35877;SDS011;21982;49.804;24.072;2024-01-10T08:57:01;64.50;;;27.20;;
35877;SDS011;21982;49.804;24.072;2024-01-10T08:59:27;53.07;;;27.30;;
35877;SDS011;21982;49.804;24.072;2024-01-10T09:01:53;46.57;;;22.23;;
35877;SDS011;21982;49.804;24.072;2024-01-10T09:04:19;44.13;;;20.10;;
35877;SDS011;21982;49.804;24.072;2024-01-10T09:06:45;37.00;;;18.77;;
35877;SDS011;21982;49.804;24.072;2024-01-10T09:09:10;42.70;;;20.17;;
35877;SDS011;21982;49.804;24.072;2024-01-10T09:11:38;43.27;;;24.10;;
35877;SDS011;21982;49.804;24.072;2024-01-10T09:14:05;49.80;;;22.80;;
35877;SDS011;21982;49.804;24.072;2024-01-10T09:16:30;55.17;;;24.57;;
35877;SDS011;21982;49.804;24.072;2024-01-10T09:18:59;47.53;;;24.07;;
35877;SDS011;21982;49.804;24.072;2024-01-10T09:21:25;47.67;;;23.57;;
35877;SDS011;21982;49.804;24.072;2024-01-10T09:23:52;48.33;;;23.80;;
35877;SDS011;21982;49.804;24.072;2024-01-10T09:26:18;50.07;;;24.87;;
35877;SDS011;21982;49.804;24.072;2024-01-10T09:28:44;47.03;;;24.67;;
35877;SDS011;21982;49.804;24.072;2024-01-10T09:31:09;35.53;;;20.97;;
35877;SDS011;21982;49.804;24.072;2024-01-10T09:33:34;45.87;;;23.63;;
35877;SDS011;21982;49.804;24.072;2024-01-10T09:36:00;46.03;;;24.63;;
35877;SDS011;21982;49.804;24.072;2024-01-10T09:38:25;43.20;;;21.70;;
35877;SDS011;21982;49.804;24.072;2024-01-10T09:40:52;51.77;;;22.63;;
35877;SDS011;21982;49.804;24.072;2024-01-10T09:43:26;48.17;;;23.77;;
35877;SDS011;21982;49.804;24.072;2024-01-10T09:45:52;43.20;;;19.03;;
35877;SDS011;21982;49.804;24.072;2024-01-10T09:48:19;42.50;;;22.07;;
35877;SDS011;21982;49.804;24.072;2024-01-10T09:50:45;42.90;;;21.60;;
35877;SDS011;21982;49.804;24.072;2024-01-10T09:53:26;42.07;;;21.60;;
35877;SDS011;21982;49.804;24.072;2024-01-10T09:55:52;44.53;;;23.40;;
35877;SDS011;21982;49.804;24.072;2024-01-10T09:58:26;48.90;;;22.75;;
35877;SDS011;21982;49.804;24.072;2024-01-10T10:00:54;40.80;;;22.93;;
35877;SDS011;21982;49.804;24.072;2024-01-10T10:03:20;45.67;;;22.33;;
35877;SDS011;21982;49.804;24.072;2024-01-10T10:05:45;45.17;;;21.67;;
35877;SDS011;21982;49.804;24.072;2024-01-10T10:08:12;45.77;;;22.40;;
35877;SDS011;21982;49.804;24.072;2024-01-10T10:10:40;44.43;;;23.27;;
35877;SDS011;21982;49.804;24.072;2024-01-10T10:13:10;41.87;;;21.33;;
35877;SDS011;21982;49.804;24.072;2024-01-10T10:15:40;48.20;;;21.47;;
35877;SDS011;21982;49.804;24.072;2024-01-10T10:18:05;43.07;;;23.33;;
35877;SDS011;21982;49.804;24.072;2024-01-10T10:20:41;45.77;;;23.43;;
35877;SDS011;21982;49.804;24.072;2024-01-10T10:23:09;40.77;;;21.60;;
35877;SDS011;21982;49.804;24.072;2024-01-10T10:25:42;43.97;;;24.23;;
35877;SDS011;21982;49.804;24.072;2024-01-10T10:28:11;45.17;;;22.20;;
35877;SDS011;21982;49.804;24.072;2024-01-10T10:30:36;43.53;;;20.83;;
35877;SDS011;21982;49.804;24.072;2024-01-10T10:33:02;40.93;;;23.43;;
35877;SDS011;21982;49.804;24.072;2024-01-10T10:35:33;49.57;;;23.40;;
35877;SDS011;21982;49.804;24.072;2024-01-10T10:37:59;46.60;;;23.87;;
35877;SDS011;21982;49.804;24.072;2024-01-10T10:40:28;47.03;;;24.50;;
35877;SDS011;21982;49.804;24.072;2024-01-10T10:42:56;45.40;;;22.10;;
35877;SDS011;21982;49.804;24.072;2024-01-10T10:45:23;41.83;;;24.57;;
35877;SDS011;21982;49.804;24.072;2024-01-10T10:48:04;40.90;;;26.50;;
35877;SDS011;21982;49.804;24.072;2024-01-10T10:50:34;53.07;;;27.50;;
35877;SDS011;21982;49.804;24.072;2024-01-10T10:53:02;47.67;;;26.75;;
35877;SDS011;21982;49.804;24.072;2024-01-10T10:55:28;55.50;;;27.42;;
35877;SDS011;21982;49.804;24.072;2024-01-10T10:57:55;48.45;;;23.15;;
35877;SDS011;21982;49.804;24.072;2024-01-10T11:00:21;49.70;;;28.85;;
35877;SDS011;21982;49.804;24.072;2024-01-10T11:02:52;47.72;;;24.05;;
35877;SDS011;21982;49.804;24.072;2024-01-10T11:05:18;50.05;;;25.23;;
35877;SDS011;21982;49.804;24.072;2024-01-10T11:07:45;51.53;;;28.83;;
35877;SDS011;21982;49.804;24.072;2024-01-10T11:10:12;52.00;;;29.08;;
35877;SDS011;21982;49.804;24.072;2024-01-10T11:22:04;45.13;;;26.42;;
35877;SDS011;21982;49.804;24.072;2024-01-10T11:24:49;46.67;;;25.80;;
35877;SDS011;21982;49.804;24.072;2024-01-10T11:27:15;43.83;;;24.40;;
35877;SDS011;21982;49.804;24.072;2024-01-10T11:29:41;45.28;;;25.45;;
35877;SDS011;21982;49.804;24.072;2024-01-10T11:32:12;42.10;;;23.98;;
35877;SDS011;21982;49.804;24.072;2024-01-10T11:37:45;37.05;;;22.25;;
35877;SDS011;21982;49.804;24.072;2024-01-10T11:40:14;36.08;;;20.70;;
35877;SDS011;21982;49.804;24.072;2024-01-10T11:42:44;38.72;;;22.58;;
35877;SDS011;21982;49.804;24.072;2024-01-10T11:48:00;36.35;;;19.85;;
35877;SDS011;21982;49.804;24.072;2024-01-10T11:50:26;38.15;;;21.17;;
35877;SDS011;21982;49.804;24.072;2024-01-10T11:52:53;38.75;;;22.38;;
35877;SDS011;21982;49.804;24.072;2024-01-10T11:55:46;45.13;;;22.67;;
35877;SDS011;21982;49.804;24.072;2024-01-10T11:58:15;41.03;;;24.52;;
35877;SDS011;21982;49.804;24.072;2024-01-10T12:00:42;44.70;;;24.98;;
35877;SDS011;21982;49.804;24.072;2024-01-10T12:03:07;36.65;;;19.80;;
35877;SDS011;21982;49.804;24.072;2024-01-10T12:05:34;42.55;;;23.42;;
35877;SDS011;21982;49.804;24.072;2024-01-10T12:08:00;45.67;;;23.48;;
35877;SDS011;21982;49.804;24.072;2024-01-10T12:10:26;48.03;;;22.95;;
35877;SDS011;21982;49.804;24.072;2024-01-10T12:12:52;38.92;;;21.70;;
35877;SDS011;21982;49.804;24.072;2024-01-10T12:15:19;39.45;;;20.75;;
35877;SDS011;21982;49.804;24.072;2024-01-10T12:17:46;43.80;;;24.05;;
35877;SDS011;21982;49.804;24.072;2024-01-10T12:20:12;47.42;;;26.95;;
35877;SDS011;21982;49.804;24.072;2024-01-10T12:22:37;47.80;;;25.33;;
35877;SDS011;21982;49.804;24.072;2024-01-10T12:25:06;45.22;;;26.63;;
35877;SDS011;21982;49.804;24.072;2024-01-10T12:27:32;45.75;;;23.30;;
35877;SDS011;21982;49.804;24.072;2024-01-10T12:30:00;38.03;;;22.30;;
35877;SDS011;21982;49.804;24.072;2024-01-10T12:32:27;40.72;;;23.98;;
35877;SDS011;21982;49.804;24.072;2024-01-10T12:35:00;37.15;;;21.05;;
35877;SDS011;21982;49.804;24.072;2024-01-10T12:37:27;36.17;;;20.88;;
35877;SDS011;21982;49.804;24.072;2024-01-10T12:39:52;44.75;;;21.48;;
35877;SDS011;21982;49.804;24.072;2024-01-10T12:42:18;40.13;;;21.95;;
35877;SDS011;21982;49.804;24.072;2024-01-10T12:44:44;43.00;;;22.67;;
35877;SDS011;21982;49.804;24.072;2024-01-10T12:47:20;39.97;;;23.15;;
35877;SDS011;21982;49.804;24.072;2024-01-10T12:49:47;43.25;;;23.05;;
35877;SDS011;21982;49.804;24.072;2024-01-10T12:52:13;43.15;;;23.05;;
35877;SDS011;21982;49.804;24.072;2024-01-10T12:54:42;46.63;;;25.45;;
35877;SDS011;21982;49.804;24.072;2024-01-10T12:57:13;48.47;;;27.42;;
35877;SDS011;21982;49.804;24.072;2024-01-10T12:59:40;46.15;;;25.48;;
35877;SDS011;21982;49.804;24.072;2024-01-10T13:02:05;41.95;;;23.77;;
35877;SDS011;21982;49.804;24.072;2024-01-10T13:04:31;43.70;;;24.95;;
35877;SDS011;21982;49.804;24.072;2024-01-10T13:06:56;54.60;;;29.20;;
35877;SDS011;21982;49.804;24.072;2024-01-10T13:09:23;50.95;;;27.90;;
35877;SDS011;21982;49.804;24.072;2024-01-10T13:11:49;47.90;;;27.58;;
35877;SDS011;21982;49.804;24.072;2024-01-10T13:14:14;57.10;;;29.75;;
35877;SDS011;21982;49.804;24.072;2024-01-10T13:16:39;50.83;;;26.48;;
35877;SDS011;21982;49.804;24.072;2024-01-10T13:19:05;48.17;;;29.13;;
35877;SDS011;21982;49.804;24.072;2024-01-10T13:21:30;49.83;;;26.48;;
35877;SDS011;21982;49.804;24.072;2024-01-10T13:23:56;55.50;;;29.25;;
35877;SDS011;21982;49.804;24.072;2024-01-10T13:26:21;56.17;;;28.42;;
35877;SDS011;21982;49.804;24.072;2024-01-10T13:28:47;50.42;;;28.75;;
35877;SDS011;21982;49.804;24.072;2024-01-10T13:31:13;48.97;;;26.92;;
35877;SDS011;21982;49.804;24.072;2024-01-10T13:33:40;47.58;;;25.48;;
35877;SDS011;21982;49.804;24.072;2024-01-10T13:36:06;46.75;;;24.25;;
35877;SDS011;21982;49.804;24.072;2024-01-10T13:38:31;47.58;;;24.50;;
35877;SDS011;21982;49.804;24.072;2024-01-10T13:40:57;47.55;;;25.85;;
35877;SDS011;21982;49.804;24.072;2024-01-10T13:43:23;49.00;;;26.60;;
35877;SDS011;21982;49.804;24.072;2024-01-10T13:45:48;51.40;;;25.40;;
35877;SDS011;21982;49.804;24.072;2024-01-10T13:48:14;49.92;;;26.05;;
35877;SDS011;21982;49.804;24.072;2024-01-10T13:50:39;46.55;;;25.50;;
35877;SDS011;21982;49.804;24.072;2024-01-10T13:53:05;50.17;;;29.80;;
35877;SDS011;21982;49.804;24.072;2024-01-10T13:55:31;53.80;;;28.00;;
35877;SDS011;21982;49.804;24.072;2024-01-10T13:57:58;53.53;;;30.02;;
35877;SDS011;21982;49.804;24.072;2024-01-10T14:00:24;55.33;;;28.77;;
35877;SDS011;21982;49.804;24.072;2024-01-10T14:02:49;50.50;;;26.85;;
35877;SDS011;21982;49.804;24.072;2024-01-10T14:05:15;59.30;;;28.60;;
35877;SDS011;21982;49.804;24.072;2024-01-10T14:07:40;53.38;;;26.83;;
35877;SDS011;21982;49.804;24.072;2024-01-10T14:10:11;55.85;;;29.15;;
35877;SDS011;21982;49.804;24.072;2024-01-10T14:12:38;53.33;;;28.63;;
35877;SDS011;21982;49.804;24.072;2024-01-10T14:15:03;53.42;;;30.17;;
35877;SDS011;21982;49.804;24.072;2024-01-10T14:17:29;54.78;;;28.08;;
35877;SDS011;21982;49.804;24.072;2024-01-10T14:19:58;55.30;;;28.75;;
35877;SDS011;21982;49.804;24.072;2024-01-10T14:22:24;58.28;;;30.13;;
35877;SDS011;21982;49.804;24.072;2024-01-10T14:24:50;62.22;;;31.52;;
35877;SDS011;21982;49.804;24.072;2024-01-10T14:27:16;56.28;;;29.08;;
35877;SDS011;21982;49.804;24.072;2024-01-10T14:29:41;63.53;;;30.67;;
35877;SDS011;21982;49.804;24.072;2024-01-10T14:32:07;57.05;;;28.00;;
35877;SDS011;21982;49.804;24.072;2024-01-10T14:34:32;56.85;;;27.83;;
35877;SDS011;21982;49.804;24.072;2024-01-10T14:36:58;58.47;;;30.85;;
35877;SDS011;21982;49.804;24.072;2024-01-10T14:39:24;57.25;;;27.27;;
35877;SDS011;21982;49.804;24.072;2024-01-10T14:41:49;52.17;;;25.88;;
35877;SDS011;21982;49.804;24.072;2024-01-10T14:44:15;54.95;;;29.60;;
35877;SDS011;21982;49.804;24.072;2024-01-10T14:46:41;57.93;;;27.87;;
35877;SDS011;21982;49.804;24.072;2024-01-10T14:49:06;58.33;;;28.77;;
35877;SDS011;21982;49.804;24.072;2024-01-10T14:51:32;50.53;;;27.40;;
35877;SDS011;21982;49.804;24.072;2024-01-10T14:53:58;56.47;;;27.17;;